Terminal Aerodrome Forecast
Issued by NWS

Home | Current Version | Previous Version | Text Only | Print | Product List | Glossary On
Versions: 1 2 3 4 5 6 7 8 9 10 11 12 13 14 15
000
FTUS41 KBTV 072336
TAFMPV
TAF
KMPV 072336Z 0800/0824 19009KT P6SM SCT070 BKN090
     FM080600 19008KT 5SM -SHRA SCT035 OVC050
     FM080900 26007KT 5SM BR OVC025
     FM081100 30008KT P6SM OVC020
     FM081300 31008KT P6SM BKN035=

USA.gov is the U.S. government's official web portal to all federal, state and local government web resources and services.